Time;durP1;ratioP1;P1;durP2;ratioP2;P2;SDS_P1;SDS_P2;PMS_P1;PMS_P2;Temp;Humidity;BMP_temperature;BMP_pressure;BME280_temperature;BME280_humidity;BME280_pressure;Samples;Min_cycle;Max_cycle;Signal;HPM_P1;HPM_P2
2024/04/15 00:00:32;;;;;;;5.60;5.10;;;14.40;99.90;;;;;;5452393;26;20245;-59
2024/04/15 00:02:58;;;;;;;5.57;5.07;;;14.40;99.90;;;;;;5452212;26;20773;-59
2024/04/15 00:05:24;;;;;;;5.40;4.57;;;14.40;99.90;;;;;;5451331;26;20572;-59
2024/04/15 00:07:50;;;;;;;4.77;4.30;;;14.40;99.90;;;;;;5451880;26;20734;-59
2024/04/15 00:10:16;;;;;;;6.57;4.90;;;14.30;99.90;;;;;;5451667;26;20240;-59
2024/04/15 00:12:42;;;;;;;5.23;4.73;;;14.40;99.90;;;;;;5451742;26;20497;-59
2024/04/15 00:15:08;;;;;;;6.80;4.63;;;14.40;99.90;;;;;;5451508;26;20943;-59
2024/04/15 00:17:34;;;;;;;6.90;4.60;;;14.40;99.90;;;;;;5452357;26;20236;-59
2024/04/15 00:19:59;;;;;;;5.67;5.00;;;14.30;99.90;;;;;;5418120;26;20642;-59
2024/04/15 00:22:25;;;;;;;5.20;4.70;;;14.30;99.90;;;;;;5415081;26;20227;-59
2024/04/15 00:24:51;;;;;;;5.60;5.10;;;14.30;99.90;;;;;;5415935;26;20248;-59
2024/04/15 00:27:17;;;;;;;5.60;5.10;;;14.30;99.90;;;;;;5414834;26;20455;-59
2024/04/15 00:29:43;;;;;;;5.00;4.60;;;14.30;99.90;;;;;;5415585;26;20241;-59
2024/04/15 00:32:08;;;;;;;5.67;5.23;;;14.30;99.90;;;;;;5415174;26;20225;-59
2024/04/15 00:34:34;;;;;;;5.93;5.43;;;14.30;99.90;;;;;;5384783;26;20244;-59
2024/04/15 00:37:00;;;;;;;6.40;5.57;;;14.30;99.90;;;;;;5415617;26;20225;-59
2024/04/15 00:39:25;;;;;;;5.07;4.63;;;14.30;99.90;;;;;;5414866;26;20245;-59
2024/04/15 00:41:51;;;;;;;5.60;5.10;;;14.30;99.90;;;;;;5415323;26;20278;-59
2024/04/15 00:44:17;;;;;;;5.30;4.50;;;14.30;99.90;;;;;;5414475;26;20603;-59
2024/04/15 00:46:43;;;;;;;5.50;5.00;;;14.30;99.90;;;;;;5415210;26;20441;-59
2024/04/15 00:49:11;;;;;;;6.50;5.33;;;14.30;99.90;;;;;;5414882;26;20245;-59
2024/04/15 00:51:39;;;;;;;5.43;5.00;;;14.30;99.90;;;;;;5415096;26;20280;-59
2024/04/15 00:54:06;;;;;;;7.37;5.40;;;14.30;99.90;;;;;;5415085;26;20532;-59
2024/04/15 00:56:32;;;;;;;5.70;5.30;;;14.30;99.90;;;;;;5415269;26;20458;-59
2024/04/15 00:58:59;;;;;;;5.80;5.33;;;14.30;99.90;;;;;;5414835;26;20953;-59
2024/04/15 01:01:26;;;;;;;6.53;5.87;;;14.30;99.90;;;;;;5417705;26;20442;-59
2024/04/15 01:03:52;;;;;;;8.40;7.17;;;14.30;99.90;;;;;;5418976;26;20891;-59
2024/04/15 01:06:17;;;;;;;5.90;5.40;;;14.30;99.90;;;;;;5418209;26;20502;-59
2024/04/15 01:08:44;;;;;;;6.87;6.20;;;14.30;99.90;;;;;;5418406;26;20446;-59
2024/04/15 01:11:12;;;;;;;6.80;6.07;;;14.30;99.90;;;;;;5417729;26;20266;-59
2024/04/15 01:13:38;;;;;;;8.43;7.33;;;14.30;99.90;;;;;;5418390;26;20574;-59
2024/04/15 01:16:04;;;;;;;7.23;6.53;;;14.30;99.90;;;;;;5418331;26;20449;-59
2024/04/15 01:18:30;;;;;;;6.97;6.40;;;14.20;99.90;;;;;;5429407;26;20841;-59
2024/04/15 01:20:57;;;;;;;7.57;6.97;;;14.20;99.90;;;;;;5454638;26;20334;-59
2024/04/15 01:23:26;;;;;;;7.47;6.87;;;14.20;99.90;;;;;;5422192;26;20223;-59
2024/04/15 01:25:52;;;;;;;7.93;7.23;;;14.20;99.90;;;;;;5454424;26;20447;-60
2024/04/15 01:28:19;;;;;;;7.83;7.00;;;14.20;99.90;;;;;;5453978;26;20448;-60
2024/04/15 01:30:46;;;;;;;7.17;6.50;;;14.20;99.90;;;;;;5454292;26;20351;-60
2024/04/15 01:33:12;;;;;;;7.17;6.60;;;14.20;99.90;;;;;;5453615;26;20806;-59
2024/04/15 01:35:38;;;;;;;8.10;7.40;;;14.20;99.90;;;;;;5453923;26;20448;-61
2024/04/15 01:38:04;;;;;;;7.77;6.80;;;14.20;99.90;;;;;;5454359;26;20398;-61
2024/04/15 01:40:30;;;;;;;7.73;6.53;;;14.20;99.90;;;;;;5454059;26;20233;-60
2024/04/15 01:42:55;;;;;;;6.90;6.30;;;14.20;99.90;;;;;;5454071;26;20944;-60
2024/04/15 01:45:21;;;;;;;7.40;6.77;;;14.20;99.90;;;;;;5453999;26;20479;-60
2024/04/15 01:47:48;;;;;;;6.83;6.33;;;14.20;99.90;;;;;;5454260;26;20272;-60
2024/04/15 01:50:18;;;;;;;6.93;6.30;;;14.20;99.90;;;;;;5453659;26;20450;-60
2024/04/15 01:52:44;;;;;;;7.43;6.67;;;14.20;99.90;;;;;;5453786;26;20531;-60
2024/04/15 01:55:10;;;;;;;7.00;6.40;;;14.20;99.90;;;;;;5422489;26;20434;-60
2024/04/15 01:57:36;;;;;;;7.03;6.43;;;14.20;99.90;;;;;;5453803;26;21089;-61
2024/04/15 02:00:06;;;;;;;7.03;6.53;;;14.10;99.90;;;;;;5422124;26;20441;-61
2024/04/15 02:02:32;;;;;;;7.97;7.37;;;14.00;99.90;;;;;;5453321;26;20498;-61
2024/04/15 02:04:58;;;;;;;8.53;7.80;;;13.90;99.90;;;;;;5453345;26;20781;-61
2024/04/15 02:07:25;;;;;;;7.90;7.20;;;13.90;99.90;;;;;;5421481;26;20431;-61
2024/04/15 02:09:51;;;;;;;8.30;7.60;;;13.80;99.90;;;;;;5454051;26;20435;-61
2024/04/15 02:12:17;;;;;;;9.37;8.13;;;13.60;99.90;;;;;;5452653;26;20982;-60
2024/04/15 02:14:43;;;;;;;10.13;9.17;;;13.50;99.90;;;;;;5453523;26;20569;-61
2024/04/15 02:17:09;;;;;;;11.80;10.70;;;13.60;99.90;;;;;;5453203;26;20222;-60
2024/04/15 02:19:34;;;;;;;11.40;10.20;;;13.60;99.90;;;;;;5452648;26;20284;-60
2024/04/15 02:22:00;;;;;;;12.50;10.63;;;13.70;99.90;;;;;;5453938;26;20273;-61
2024/04/15 02:24:27;;;;;;;12.13;10.50;;;13.60;99.90;;;;;;5453218;26;20230;-60
2024/04/15 02:26:54;;;;;;;12.53;9.83;;;13.60;99.90;;;;;;5453909;26;20224;-61
2024/04/15 02:29:19;;;;;;;10.93;8.20;;;13.70;99.90;;;;;;5452866;26;20447;-61
2024/04/15 02:31:45;;;;;;;9.60;8.60;;;13.70;99.90;;;;;;5453486;26;20828;-61
2024/04/15 02:34:11;;;;;;;9.83;8.83;;;13.70;99.90;;;;;;5421154;26;20238;-61
2024/04/15 02:36:37;;;;;;;11.07;9.10;;;13.80;99.90;;;;;;5452604;26;20264;-61
2024/04/15 02:39:02;;;;;;;10.13;9.20;;;13.80;99.90;;;;;;5453343;26;20443;-61
2024/04/15 02:41:28;;;;;;;12.00;9.03;;;13.80;99.90;;;;;;5420646;26;20267;-61
2024/04/15 02:43:54;;;;;;;9.70;8.80;;;13.80;99.90;;;;;;5453471;26;20357;-61
2024/04/15 02:46:19;;;;;;;9.93;8.93;;;13.80;99.90;;;;;;5452846;26;20242;-60
2024/04/15 02:48:45;;;;;;;10.67;9.47;;;13.70;99.90;;;;;;5453184;26;20588;-61
2024/04/15 02:51:11;;;;;;;10.80;9.50;;;13.70;99.90;;;;;;5421476;26;20238;-60
2024/04/15 02:53:37;;;;;;;10.10;9.20;;;13.70;99.90;;;;;;5452612;26;20281;-61
2024/04/15 02:56:03;;;;;;;10.87;9.83;;;13.70;99.90;;;;;;5452840;26;20230;-61
2024/04/15 02:58:28;;;;;;;11.30;10.20;;;13.70;99.90;;;;;;5452835;26;20234;-60
2024/04/15 03:00:56;;;;;;;10.67;9.67;;;13.70;99.90;;;;;;5452881;26;20452;-61
2024/04/15 03:03:22;;;;;;;10.33;9.33;;;13.70;99.90;;;;;;5452280;26;20222;-60
2024/04/15 03:05:47;;;;;;;10.73;9.70;;;13.70;99.90;;;;;;5453348;26;20436;-61
2024/04/15 03:08:13;;;;;;;12.30;9.70;;;13.80;99.90;;;;;;5452374;26;20231;-61
2024/04/15 03:10:39;;;;;;;11.00;9.90;;;13.80;99.90;;;;;;5452887;26;20290;-61
2024/04/15 03:13:05;;;;;;;10.23;9.33;;;13.80;99.90;;;;;;5453233;26;21035;-61
2024/04/15 03:15:34;;;;;;;15.00;10.10;;;13.80;99.90;;;;;;5452510;26;20279;-60
2024/04/15 03:18:02;;;;;;;11.20;10.20;;;13.80;99.90;;;;;;5448477;26;20232;-61
2024/04/15 03:20:28;;;;;;;11.97;10.87;;;13.80;99.90;;;;;;5416416;26;20443;-60
2024/04/15 03:22:54;;;;;;;11.93;10.83;;;13.80;99.90;;;;;;5416271;26;20917;-61
2024/04/15 03:25:22;;;;;;;11.53;10.40;;;13.80;99.90;;;;;;5415718;26;20449;-60
2024/04/15 03:27:48;;;;;;;11.23;10.13;;;13.80;99.90;;;;;;5417125;26;20228;-61
2024/04/15 03:30:15;;;;;;;11.50;10.30;;;13.80;99.90;;;;;;5416746;26;20457;-60
2024/04/15 03:32:41;;;;;;;12.80;11.50;;;13.80;99.90;;;;;;5416350;26;20456;-61
2024/04/15 03:35:13;;;;;;;10.93;9.97;;;13.80;99.90;;;;;;5416321;26;20621;-60
2024/04/15 03:37:39;;;;;;;11.13;10.20;;;13.80;99.90;;;;;;5416026;26;20537;-61
2024/04/15 03:40:06;;;;;;;11.90;9.70;;;13.80;99.90;;;;;;5416030;26;20870;-61
2024/04/15 03:42:32;;;;;;;11.17;9.67;;;13.80;99.90;;;;;;5415774;26;20464;-60
2024/04/15 03:44:57;;;;;;;10.17;9.17;;;13.70;99.90;;;;;;5416958;26;20453;-61
2024/04/15 03:47:23;;;;;;;10.30;9.30;;;13.70;99.90;;;;;;5415394;26;20230;-60
2024/04/15 03:49:49;;;;;;;13.27;10.40;;;13.70;99.90;;;;;;5416602;26;20295;-61
2024/04/15 03:52:15;;;;;;;9.97;8.97;;;13.50;99.90;;;;;;5415972;26;20228;-61
2024/04/15 03:54:40;;;;;;;10.17;9.00;;;13.50;99.90;;;;;;5414809;26;20682;-61
2024/04/15 03:57:06;;;;;;;10.90;9.90;;;13.50;99.90;;;;;;5416216;26;20725;-60
2024/04/15 03:59:32;;;;;;;11.07;9.90;;;13.50;99.90;;;;;;5415618;26;20223;-60
2024/04/15 04:01:58;;;;;;;9.73;8.77;;;13.50;99.90;;;;;;5415890;26;20234;-60
2024/04/15 04:04:23;;;;;;;10.60;9.60;;;13.50;99.90;;;;;;5415743;26;20457;-60
2024/04/15 04:06:49;;;;;;;10.87;9.87;;;13.50;99.90;;;;;;5416416;26;20754;-60
2024/04/15 04:09:15;;;;;;;10.47;9.43;;;13.50;99.90;;;;;;5415621;26;20227;-60
2024/04/15 04:11:41;;;;;;;14.10;10.27;;;13.40;99.90;;;;;;5383559;26;20234;-60
2024/04/15 04:14:06;;;;;;;11.43;10.23;;;13.40;99.90;;;;;;5416233;26;20286;-60
2024/04/15 04:16:32;;;;;;;14.67;11.10;;;13.40;99.90;;;;;;5415302;26;20457;-60
2024/04/15 04:18:58;;;;;;;11.73;10.53;;;13.30;99.90;;;;;;5415841;26;20564;-60
2024/04/15 04:21:24;;;;;;;11.37;10.37;;;13.30;99.90;;;;;;5415361;26;20284;-60
2024/04/15 04:23:49;;;;;;;11.97;10.87;;;13.30;99.90;;;;;;5384672;26;20231;-60
2024/04/15 04:26:15;;;;;;;13.20;11.80;;;13.30;99.90;;;;;;5415543;26;20270;-60
2024/04/15 04:28:41;;;;;;;15.30;12.87;;;13.30;99.90;;;;;;5415058;26;20238;-60
2024/04/15 04:31:07;;;;;;;12.83;11.70;;;13.30;99.90;;;;;;5415731;26;20231;-61
2024/04/15 04:33:33;;;;;;;13.93;12.50;;;13.30;99.90;;;;;;5415046;26;20441;-61
2024/04/15 04:35:59;;;;;;;13.37;11.97;;;13.30;99.90;;;;;;5417698;26;20437;-61
2024/04/15 04:38:26;;;;;;;12.27;11.00;;;13.30;99.90;;;;;;5357910;26;20445;-61
2024/04/15 04:40:59;;;;;;;13.83;12.53;;;13.30;99.90;;;;;;5418660;26;20513;-61
2024/04/15 04:43:25;;;;;;;14.07;12.53;;;13.20;99.90;;;;;;5418559;26;20449;-61
2024/04/15 04:45:52;;;;;;;16.30;11.87;;;13.30;99.90;;;;;;5418912;26;20441;-61
2024/04/15 04:48:18;;;;;;;13.97;12.47;;;13.30;99.90;;;;;;5418753;26;20871;-61
2024/04/15 04:50:45;;;;;;;13.90;12.70;;;13.30;99.90;;;;;;5418262;26;20566;-61
2024/04/15 04:53:10;;;;;;;16.30;12.37;;;13.30;99.90;;;;;;5419012;26;20823;-62
2024/04/15 04:55:37;;;;;;;14.27;11.90;;;13.30;99.90;;;;;;5418544;26;20445;-61
2024/04/15 04:58:04;;;;;;;14.20;12.00;;;13.20;99.90;;;;;;5418667;26;20265;-61
2024/04/15 05:00:30;;;;;;;13.13;11.53;;;13.20;99.90;;;;;;5418749;26;20448;-61
2024/04/15 05:02:55;;;;;;;14.40;10.40;;;13.20;99.90;;;;;;5418828;26;20447;-61
2024/04/15 05:05:21;;;;;;;12.80;11.47;;;13.20;99.90;;;;;;5417679;26;20444;-61
2024/04/15 05:07:47;;;;;;;13.83;12.50;;;13.20;99.90;;;;;;5418368;26;20289;-61
2024/04/15 05:10:14;;;;;;;12.97;10.43;;;13.30;99.90;;;;;;5418650;26;20697;-61
2024/04/15 05:12:39;;;;;;;13.03;10.60;;;13.30;99.90;;;;;;5417515;26;20235;-61
2024/04/15 05:15:06;;;;;;;14.23;12.77;;;13.30;99.90;;;;;;5418661;26;20448;-61
2024/04/15 05:17:31;;;;;;;13.43;12.03;;;13.30;99.90;;;;;;5417791;26;20715;-61
2024/04/15 05:19:57;;;;;;;13.20;11.70;;;13.30;99.90;;;;;;5419069;26;20500;-60
2024/04/15 05:22:23;;;;;;;14.03;11.00;;;13.30;99.90;;;;;;5386060;26;20460;-60
2024/04/15 05:24:49;;;;;;;13.20;11.80;;;13.20;99.90;;;;;;5417862;26;20234;-60
2024/04/15 05:27:14;;;;;;;13.27;11.80;;;13.20;99.90;;;;;;5418532;26;20233;-60
2024/04/15 05:29:40;;;;;;;13.33;12.00;;;13.20;99.90;;;;;;5417168;26;20235;-61
2024/04/15 05:32:06;;;;;;;13.50;12.10;;;13.30;99.90;;;;;;5417753;26;20615;-62
2024/04/15 05:34:33;;;;;;;13.73;12.43;;;13.30;99.90;;;;;;5417494;26;20311;-62
2024/04/15 05:36:59;;;;;;;16.50;14.73;;;13.30;99.90;;;;;;5418685;26;20277;-62
2024/04/15 05:39:25;;;;;;;15.87;14.17;;;13.20;99.90;;;;;;5386163;26;20888;-62
2024/04/15 05:41:51;;;;;;;14.87;13.50;;;13.30;99.90;;;;;;5417973;26;20559;-62
2024/04/15 05:44:16;;;;;;;15.43;13.83;;;13.30;99.90;;;;;;5417740;26;20497;-62
2024/04/15 05:46:50;;;;;;;13.10;11.27;;;13.20;99.90;;;;;;5416766;26;20231;-62
2024/04/15 05:49:16;;;;;;;13.60;12.40;;;13.20;99.90;;;;;;5418305;26;20564;-61
2024/04/15 05:51:41;;;;;;;14.57;13.20;;;13.30;99.90;;;;;;5417457;26;20456;-60
2024/04/15 05:54:07;;;;;;;12.53;11.23;;;13.30;99.90;;;;;;5417152;26;20456;-61
2024/04/15 05:56:33;;;;;;;14.03;11.67;;;13.20;99.90;;;;;;5416577;26;20726;-65
2024/04/15 05:58:58;;;;;;;15.70;13.50;;;13.20;99.90;;;;;;5417759;26;20227;-60
2024/04/15 06:01:24;;;;;;;12.70;11.50;;;13.20;99.90;;;;;;5416961;26;20289;-61
2024/04/15 06:03:50;;;;;;;11.40;10.30;;;13.10;99.90;;;;;;5417875;26;20226;-61
2024/04/15 06:06:16;;;;;;;11.17;9.23;;;13.00;99.90;;;;;;5416818;26;20548;-61
2024/04/15 06:08:41;;;;;;;11.77;10.57;;;13.00;99.90;;;;;;5412862;26;20230;-61
2024/04/15 06:11:07;;;;;;;10.47;9.43;;;13.00;99.90;;;;;;5393375;26;20249;-61
2024/04/15 06:13:33;;;;;;;10.27;8.77;;;12.90;99.90;;;;;;5397385;26;20279;-61
2024/04/15 06:15:59;;;;;;;9.60;8.77;;;12.90;99.90;;;;;;5407273;26;20224;-61
2024/04/15 06:18:25;;;;;;;8.87;7.97;;;12.90;99.90;;;;;;5409312;26;20242;-60
2024/04/15 06:20:50;;;;;;;9.03;7.37;;;12.90;99.90;;;;;;5417624;26;20351;-60
2024/04/15 06:23:16;;;;;;;9.90;7.90;;;12.90;99.90;;;;;;5417550;26;20602;-61
2024/04/15 06:25:42;;;;;;;8.20;7.40;;;12.90;99.90;;;;;;5417048;26;20230;-61
2024/04/15 06:28:08;;;;;;;9.97;7.50;;;12.90;99.90;;;;;;5417600;26;20281;-61
2024/04/15 06:30:33;;;;;;;9.00;8.10;;;13.00;99.90;;;;;;5415923;26;20237;-61
2024/04/15 06:32:59;;;;;;;10.50;6.70;;;13.00;99.90;;;;;;5417640;26;20250;-61
2024/04/15 06:35:25;;;;;;;6.70;6.10;;;13.00;99.90;;;;;;5417154;26;20615;-61
2024/04/15 06:37:51;;;;;;;12.30;6.80;;;12.90;99.90;;;;;;5417060;26;20691;-61
2024/04/15 06:40:16;;;;;;;7.20;6.43;;;12.80;99.90;;;;;;5416905;26;20345;-61
2024/04/15 06:42:42;;;;;;;6.10;5.50;;;12.90;99.90;;;;;;5417073;26;20492;-61
2024/04/15 06:45:08;;;;;;;9.43;6.50;;;12.90;99.90;;;;;;5417657;26;20235;-61
2024/04/15 06:47:33;;;;;;;8.07;6.10;;;12.90;99.90;;;;;;5416794;26;20395;-61
2024/04/15 06:49:59;;;;;;;7.97;6.40;;;12.90;99.90;;;;;;5417714;26;20238;-61
2024/04/15 06:52:25;;;;;;;7.00;6.40;;;12.90;99.90;;;;;;5417603;26;20222;-60
2024/04/15 06:54:51;;;;;;;6.40;5.90;;;12.90;99.90;;;;;;5416786;26;20246;-60
2024/04/15 06:57:16;;;;;;;9.33;7.47;;;12.90;99.90;;;;;;5415979;26;20235;-61
2024/04/15 06:59:42;;;;;;;6.93;6.20;;;12.90;99.90;;;;;;5416857;26;20250;-60
2024/04/15 07:02:10;;;;;;;9.47;7.27;;;13.00;99.90;;;;;;5417468;26;20226;-61
2024/04/15 07:04:36;;;;;;;6.80;5.60;;;13.00;99.90;;;;;;5416720;26;20351;-61
2024/04/15 07:07:02;;;;;;;12.33;5.60;;;13.10;99.90;;;;;;5417467;26;20444;-61
2024/04/15 07:09:28;;;;;;;6.83;5.73;;;13.10;99.90;;;;;;5417105;26;20239;-61
2024/04/15 07:11:54;;;;;;;9.50;6.50;;;13.20;99.90;;;;;;5417280;26;20239;-61
2024/04/15 07:14:20;;;;;;;6.33;5.83;;;13.20;99.90;;;;;;5417261;26;20983;-61
2024/04/15 07:16:46;;;;;;;7.53;6.80;;;13.20;99.90;;;;;;5385311;26;20577;-61
2024/04/15 07:19:11;;;;;;;5.90;5.10;;;13.00;99.90;;;;;;5417038;26;20826;-60
2024/04/15 07:21:37;;;;;;;8.60;6.87;;;13.00;99.90;;;;;;5416224;26;20273;-61
2024/04/15 07:24:03;;;;;;;7.57;6.40;;;13.10;99.90;;;;;;5417426;26;20262;-61
2024/04/15 07:26:29;;;;;;;7.40;6.17;;;13.10;99.90;;;;;;5417067;26;20274;-61
2024/04/15 07:28:55;;;;;;;8.17;6.37;;;13.10;99.90;;;;;;5416652;26;20508;-61
2024/04/15 07:31:20;;;;;;;8.70;5.70;;;13.10;99.90;;;;;;5417310;26;20936;-61
2024/04/15 07:33:46;;;;;;;8.07;7.30;;;13.10;99.90;;;;;;5416104;26;20235;-61
2024/04/15 07:36:12;;;;;;;8.10;5.60;;;13.00;99.90;;;;;;5416991;26;20232;-61
2024/04/15 07:38:37;;;;;;;9.83;7.93;;;13.10;99.90;;;;;;5416426;26;20312;-61
2024/04/15 07:41:03;;;;;;;9.80;8.97;;;13.10;99.90;;;;;;5416724;26;20438;-61
2024/04/15 07:43:29;;;;;;;7.70;6.53;;;13.10;99.90;;;;;;5416705;26;20317;-60
2024/04/15 07:45:55;;;;;;;7.90;6.40;;;13.10;99.90;;;;;;5416523;26;20224;-61
2024/04/15 07:48:21;;;;;;;7.57;6.63;;;13.20;99.90;;;;;;5416590;26;20239;-61
2024/04/15 07:50:46;;;;;;;11.50;7.10;;;13.20;99.90;;;;;;5415639;26;20261;-61
2024/04/15 07:53:12;;;;;;;9.07;6.90;;;13.10;99.90;;;;;;5416790;26;20257;-61
2024/04/15 07:55:42;;;;;;;7.70;6.37;;;13.00;99.90;;;;;;5415936;26;20283;-61
2024/04/15 07:58:08;;;;;;;7.10;6.07;;;13.00;99.90;;;;;;5416662;26;20298;-61
2024/04/15 08:00:33;;;;;;;8.80;6.70;;;13.10;99.90;;;;;;5415686;26;20453;-61
2024/04/15 08:02:59;;;;;;;7.57;6.80;;;13.10;99.90;;;;;;5416408;26;20602;-61
2024/04/15 08:05:25;;;;;;;8.07;5.80;;;13.20;99.90;;;;;;5416589;26;20214;-61
2024/04/15 08:07:52;;;;;;;7.40;5.87;;;13.30;99.90;;;;;;5415546;26;20336;-60
2024/04/15 08:10:18;;;;;;;9.07;8.33;;;13.40;99.90;;;;;;5415894;26;20220;-61
2024/04/15 08:12:44;;;;;;;6.60;6.00;;;13.50;99.90;;;;;;5384429;26;20434;-61
2024/04/15 08:15:10;;;;;;;6.83;5.70;;;13.60;99.90;;;;;;5416353;26;20226;-61
2024/04/15 08:17:35;;;;;;;9.43;8.53;;;13.70;99.90;;;;;;5415855;26;20223;-61
2024/04/15 08:20:03;;;;;;;8.50;7.80;;;13.90;99.90;;;;;;5416133;26;20507;-61
2024/04/15 08:22:29;;;;;;;6.93;6.33;;;14.00;99.90;;;;;;5416242;26;20327;-61
2024/04/15 08:24:54;;;;;;;8.63;5.30;;;14.00;99.90;;;;;;5415212;26;20438;-61
2024/04/15 08:27:21;;;;;;;9.33;4.90;;;14.00;99.90;;;;;;5416042;26;20224;-61
2024/04/15 08:29:46;;;;;;;7.50;7.00;;;14.00;99.90;;;;;;5384244;26;20282;-61
2024/04/15 08:32:12;;;;;;;6.20;5.60;;;14.20;99.90;;;;;;5384788;26;20443;-61
2024/04/15 08:34:38;;;;;;;7.60;5.27;;;14.20;99.90;;;;;;5415602;26;20559;-61
2024/04/15 08:37:04;;;;;;;7.67;5.30;;;14.30;99.90;;;;;;5415978;26;20241;-61
2024/04/15 08:39:32;;;;;;;7.73;7.13;;;14.30;99.90;;;;;;5415719;26;20228;-61
2024/04/15 08:42:16;;;;;;;10.83;6.03;;;14.30;99.90;;;;;;5414825;26;20624;-61
2024/04/15 08:44:44;;;;;;;5.33;4.00;;;14.30;99.40;;;;;;5414944;26;20469;-61
2024/04/15 08:47:15;;;;;;;7.77;6.13;;;14.30;99.60;;;;;;5415949;26;20460;-61
2024/04/15 08:49:41;;;;;;;4.90;3.83;;;14.30;97.90;;;;;;5415179;26;21061;-61
2024/04/15 08:52:09;;;;;;;5.47;3.73;;;14.40;99.00;;;;;;5415632;26;20455;-61
2024/04/15 08:54:35;;;;;;;6.23;5.30;;;14.40;99.30;;;;;;5415090;26;20232;-61
2024/04/15 08:57:02;;;;;;;6.50;5.17;;;14.50;99.70;;;;;;5415737;26;21081;-61
2024/04/15 08:59:30;;;;;;;5.43;4.33;;;14.60;97.10;;;;;;5415516;26;20235;-61
2024/04/15 09:01:55;;;;;;;4.93;3.80;;;14.50;97.10;;;;;;5414833;26;20845;-61
2024/04/15 09:04:23;;;;;;;4.90;4.50;;;14.50;96.80;;;;;;5415500;26;20517;-61
2024/04/15 09:06:48;;;;;;;5.60;4.93;;;14.50;97.60;;;;;;5414652;26;20281;-61
2024/04/15 09:09:14;;;;;;;4.87;4.40;;;14.50;95.10;;;;;;5415609;26;20447;-61
2024/04/15 09:11:40;;;;;;;4.53;3.73;;;14.40;94.50;;;;;;5414590;26;20255;-61
2024/04/15 09:14:05;;;;;;;4.40;4.00;;;14.30;95.00;;;;;;5415417;26;20428;-61
2024/04/15 09:16:31;;;;;;;5.70;5.40;;;14.40;95.40;;;;;;5415147;26;20266;-61
2024/04/15 09:18:58;;;;;;;3.83;3.50;;;14.40;94.00;;;;;;5432939;26;20632;-61
2024/04/15 09:21:24;;;;;;;3.47;3.13;;;14.50;94.80;;;;;;5452709;26;20533;-61
2024/04/15 09:23:50;;;;;;;4.53;4.17;;;14.50;94.90;;;;;;5454262;26;20521;-61
2024/04/15 09:26:16;;;;;;;5.63;4.77;;;14.60;94.10;;;;;;5454551;26;20823;-61
2024/04/15 09:28:42;;;;;;;5.60;3.00;;;14.60;94.50;;;;;;5453986;26;20455;-61
2024/04/15 09:31:08;;;;;;;7.23;3.97;;;14.70;93.60;;;;;;5454285;26;20224;-61
2024/04/15 09:33:38;;;;;;;4.87;4.30;;;14.70;95.70;;;;;;5454675;26;20554;-61
2024/04/15 09:36:04;;;;;;;7.73;5.00;;;14.70;94.00;;;;;;5454807;26;20499;-61
2024/04/15 09:38:31;;;;;;;6.03;4.03;;;14.70;92.60;;;;;;5454654;26;20576;-61
2024/04/15 09:40:58;;;;;;;8.30;4.03;;;14.70;93.90;;;;;;5453465;26;20510;-61
2024/04/15 09:43:27;;;;;;;3.20;3.00;;;14.70;93.00;;;;;;5423151;26;20774;-61
2024/04/15 09:45:54;;;;;;;3.37;3.07;;;14.80;93.30;;;;;;5453248;26;20570;-61
2024/04/15 09:48:23;;;;;;;3.43;3.20;;;14.70;92.60;;;;;;5454204;26;20541;-61
2024/04/15 09:50:53;;;;;;;8.13;4.00;;;14.80;93.70;;;;;;5453857;26;20439;-61
2024/04/15 09:53:35;;;;;;;4.27;4.07;;;14.90;92.20;;;;;;5452020;26;20992;-61
2024/04/15 09:56:02;;;;;;;4.90;4.60;;;14.90;91.80;;;;;;5451182;26;20453;-61
2024/04/15 09:58:30;;;;;;;4.03;3.60;;;14.60;92.60;;;;;;5453676;26;20498;-61
2024/04/15 10:00:59;;;;;;;4.40;3.17;;;14.80;93.60;;;;;;5453244;26;20498;-61
2024/04/15 10:03:30;;;;;;;4.60;4.20;;;14.90;92.50;;;;;;5453736;26;20853;-61
2024/04/15 10:06:00;;;;;;;4.87;4.47;;;14.90;92.90;;;;;;5453563;26;20909;-61
2024/04/15 10:08:26;;;;;;;4.40;4.00;;;15.10;92.20;;;;;;5422211;26;20447;-61
2024/04/15 10:10:53;;;;;;;6.50;3.23;;;15.10;90.80;;;;;;5452521;26;20581;-61
2024/04/15 10:13:19;;;;;;;4.30;3.90;;;15.10;91.10;;;;;;5453471;26;20439;-61
2024/04/15 10:15:45;;;;;;;4.97;4.27;;;15.10;90.90;;;;;;5453176;26;20471;-61
2024/04/15 10:18:14;;;;;;;4.33;4.03;;;15.10;91.40;;;;;;5453500;26;20802;-61
2024/04/15 10:20:42;;;;;;;5.13;4.80;;;15.10;90.30;;;;;;5452405;26;20269;-61
2024/04/15 10:23:15;;;;;;;7.30;4.73;;;15.20;92.40;;;;;;5453625;26;20443;-61
2024/04/15 10:25:42;;;;;;;4.80;4.50;;;15.40;92.60;;;;;;5424927;26;20488;-62
2024/04/15 10:28:09;;;;;;;7.10;6.57;;;15.50;92.80;;;;;;5421651;26;20848;-61
2024/04/15 10:30:36;;;;;;;5.00;4.70;;;15.70;90.80;;;;;;5453403;26;20455;-60
2024/04/15 10:33:05;;;;;;;5.83;5.10;;;15.70;90.00;;;;;;5452781;26;20447;-60
2024/04/15 10:35:36;;;;;;;4.90;4.40;;;15.80;90.10;;;;;;5453455;26;20983;-61
2024/04/15 10:38:04;;;;;;;4.30;3.90;;;15.90;90.30;;;;;;5452761;26;20998;-60
2024/04/15 10:40:31;;;;;;;4.77;4.30;;;16.00;88.30;;;;;;5453539;26;20883;-60
2024/04/15 10:42:58;;;;;;;4.87;4.33;;;16.00;89.00;;;;;;5452907;26;20564;-61
2024/04/15 10:45:26;;;;;;;5.30;4.80;;;16.00;87.30;;;;;;5453303;26;20759;-60
2024/04/15 10:47:56;;;;;;;5.13;4.83;;;15.90;88.80;;;;;;5452563;26;20447;-62
2024/04/15 10:50:22;;;;;;;4.40;2.77;;;15.80;85.20;;;;;;5452499;26;20562;-62
2024/04/15 10:52:51;;;;;;;3.40;3.07;;;15.70;87.00;;;;;;5452220;26;20455;-62
2024/04/15 10:55:18;;;;;;;6.23;4.60;;;15.70;86.60;;;;;;5446753;26;20428;-63
2024/04/15 10:57:45;;;;;;;6.40;4.80;;;15.80;87.60;;;;;;5449305;26;20610;-62
2024/04/15 11:00:12;;;;;;;5.10;4.60;;;15.90;88.50;;;;;;5453347;26;21083;-62
2024/04/15 11:02:43;;;;;;;4.47;4.17;;;16.20;91.70;;;;;;5453392;26;20444;-62
2024/04/15 11:05:14;;;;;;;5.40;3.10;;;16.30;91.30;;;;;;5453381;26;20534;-62
2024/04/15 11:07:43;;;;;;;4.57;4.00;;;16.40;89.50;;;;;;5452922;26;20435;-63
2024/04/15 11:10:11;;;;;;;6.87;6.37;;;16.50;88.20;;;;;;5452217;26;20551;-63
2024/04/15 11:12:38;;;;;;;6.20;4.50;;;16.70;89.00;;;;;;5452693;26;20444;-62
2024/04/15 11:15:18;;;;;;;4.20;3.70;;;17.00;88.60;;;;;;5451780;26;20600;-62
2024/04/15 11:17:54;;;;;;;5.53;3.93;;;17.10;83.90;;;;;;5419765;26;20533;-60
2024/04/15 11:20:21;;;;;;;4.77;4.47;;;17.00;82.20;;;;;;5416565;26;20496;-62
2024/04/15 11:22:47;;;;;;;4.70;3.83;;;16.90;80.60;;;;;;5416538;26;20505;-62
2024/04/15 11:25:14;;;;;;;4.97;3.80;;;16.70;83.30;;;;;;5417040;26;20449;-62
2024/04/15 11:27:51;;;;;;;5.03;4.73;;;16.70;85.30;;;;;;5416999;26;20473;-62
2024/04/15 11:30:23;;;;;;;6.07;4.57;;;16.70;86.30;;;;;;5401058;26;20441;-62
2024/04/15 11:32:50;;;;;;;4.90;4.00;;;16.70;83.20;;;;;;5384610;26;21063;-62
2024/04/15 11:35:16;;;;;;;5.20;4.70;;;16.70;84.00;;;;;;5417052;26;20499;-62
2024/04/15 11:37:42;;;;;;;4.00;3.60;;;16.70;84.70;;;;;;5417127;26;20496;-62
2024/04/15 11:40:12;;;;;;;4.50;4.10;;;16.70;85.10;;;;;;5415633;26;21135;-63
2024/04/15 11:42:38;;;;;;;3.30;3.00;;;16.60;82.80;;;;;;5416380;26;20452;-62
2024/04/15 11:45:05;;;;;;;4.43;4.03;;;16.70;82.90;;;;;;5415147;26;20508;-62
2024/04/15 11:47:31;;;;;;;5.93;3.40;;;16.90;81.50;;;;;;5384948;26;20464;-63
2024/04/15 11:49:57;;;;;;;6.00;3.67;;;17.00;81.60;;;;;;5415877;26;20570;-62
2024/04/15 11:52:24;;;;;;;4.40;2.93;;;17.10;81.70;;;;;;5415699;26;20441;-62
2024/04/15 11:54:50;;;;;;;3.50;3.20;;;17.10;79.80;;;;;;5414212;26;20353;-62
2024/04/15 11:57:16;;;;;;;4.93;3.10;;;17.10;78.70;;;;;;5384347;26;20456;-62
2024/04/15 11:59:41;;;;;;;3.70;3.47;;;16.90;79.00;;;;;;5416555;26;20279;-62
2024/04/15 12:02:10;;;;;;;4.13;3.73;;;17.00;78.40;;;;;;5415808;26;20231;-62
2024/04/15 12:04:36;;;;;;;4.03;3.70;;;16.80;77.30;;;;;;5416609;26;20227;-62
2024/04/15 12:07:01;;;;;;;5.00;3.37;;;16.80;75.20;;;;;;5415542;26;20492;-62
2024/04/15 12:09:30;;;;;;;3.40;3.07;;;16.60;75.70;;;;;;5350478;26;20317;-62
2024/04/15 12:11:56;;;;;;;3.70;3.40;;;16.80;78.00;;;;;;5404863;26;20235;-62
2024/04/15 12:14:22;;;;;;;6.10;5.50;;;16.90;78.00;;;;;;5416183;26;20506;-62
2024/04/15 12:16:47;;;;;;;3.03;2.80;;;17.10;77.30;;;;;;5415814;26;20323;-62
2024/04/15 12:19:13;;;;;;;3.23;2.70;;;17.30;78.20;;;;;;5416178;26;21019;-62
2024/04/15 12:21:39;;;;;;;3.10;2.90;;;17.40;76.20;;;;;;5416205;26;20302;-62
2024/04/15 12:24:05;;;;;;;5.07;4.23;;;17.30;74.80;;;;;;5415578;26;20227;-62
2024/04/15 12:26:30;;;;;;;8.53;6.47;;;17.10;71.20;;;;;;5416078;26;20235;-62
2024/04/15 12:28:56;;;;;;;3.83;3.63;;;17.20;76.50;;;;;;5415292;26;20524;-62
2024/04/15 12:31:22;;;;;;;3.33;2.87;;;17.20;76.00;;;;;;5416034;26;20218;-62
2024/04/15 12:33:48;;;;;;;4.40;3.00;;;17.10;73.60;;;;;;5383995;26;20227;-62
2024/04/15 12:36:13;;;;;;;2.70;2.50;;;17.00;71.60;;;;;;5416053;26;20319;-62